Time;durP1;ratioP1;P1;durP2;ratioP2;P2;SDS_P1;SDS_P2;PMS_P1;PMS_P2;Temp;Humidity;BMP_temperature;BMP_pressure;BME280_temperature;BME280_humidity;BME280_pressure;Samples;Min_cycle;Max_cycle;Signal;HPM_P1;HPM_P2
2023/09/23 00:00:08;;;;;;;;;;;10.00;76.20;;;;;;5066449;28;20319;-79
2023/09/23 00:02:33;;;;;;;;;;;10.00;76.20;;;;;;5067554;28;20250;-80
2023/09/23 00:04:59;;;;;;;;;;;10.00;76.20;;;;;;5067841;28;20384;-76
2023/09/23 00:07:25;;;;;;;;;;;9.90;76.10;;;;;;5066351;28;19908;-79
2023/09/23 00:09:51;;;;;;;;;;;9.90;76.30;;;;;;5049686;28;20287;-78
2023/09/23 00:12:17;;;;;;;;;;;9.80;76.30;;;;;;5066470;28;19909;-81
2023/09/23 00:14:44;;;;;;;;;;;9.80;76.30;;;;;;5067623;28;19913;-79
2023/09/23 00:17:10;;;;;;;;;;;9.80;76.30;;;;;;5049849;28;19920;-79
2023/09/23 00:19:35;;;;;;;;;;;9.70;76.30;;;;;;5053677;28;19913;-79
2023/09/23 00:22:02;;;;;;;;;;;9.60;76.30;;;;;;5070097;28;20430;-79
2023/09/23 00:24:27;;;;;;;;;;;9.60;76.30;;;;;;5070012;28;19997;-79
2023/09/23 00:26:59;;;;;;;;;;;9.60;76.40;;;;;;5070318;28;20348;-79
2023/09/23 00:29:27;;;;;;;;;;;9.60;76.40;;;;;;5054252;28;19923;-79
2023/09/23 00:31:54;;;;;;;;;;;9.60;76.30;;;;;;5071438;28;19908;-79
2023/09/23 00:34:20;;;;;;;;;;;9.60;76.20;;;;;;5070429;28;19935;-79
2023/09/23 00:36:46;;;;;;;;;;;9.50;76.20;;;;;;5053578;28;20011;-80
2023/09/23 00:39:13;;;;;;;;;;;9.50;76.30;;;;;;5071547;28;19946;-80
2023/09/23 00:41:41;;;;;;;;;;;9.50;76.30;;;;;;5053599;28;20336;-80
2023/09/23 00:44:07;;;;;;;;;;;9.40;76.20;;;;;;5071390;28;20007;-79
2023/09/23 00:46:35;;;;;;;;;;;9.40;76.20;;;;;;5053212;28;20012;-79
2023/09/23 00:49:01;;;;;;;;;;;9.30;76.30;;;;;;5071136;28;19919;-79
2023/09/23 00:51:30;;;;;;;;;;;9.30;76.30;;;;;;5070028;28;20197;-80
2023/09/23 00:53:57;;;;;;;;;;;9.30;76.40;;;;;;5069970;28;19912;-79
2023/09/23 00:56:23;;;;;;;;;;;9.30;76.50;;;;;;5069942;28;20332;-79
2023/09/23 00:58:50;;;;;;;;;;;9.20;76.40;;;;;;5053154;28;20341;-78
2023/09/23 01:01:16;;;;;;;;;;;9.30;76.50;;;;;;5069385;28;20280;-79
2023/09/23 01:03:42;;;;;;;;;;;9.30;76.50;;;;;;5052953;28;19925;-79
2023/09/23 01:06:16;;;;;;;;;;;9.30;76.50;;;;;;5071012;28;19913;-79
2023/09/23 01:08:43;;;;;;;;;;;9.30;76.40;;;;;;5069705;28;19912;-70
2023/09/23 01:11:09;;;;;;;;;;;9.30;76.40;;;;;;5070782;28;19943;-79
2023/09/23 01:13:35;;;;;;;;;;;9.30;76.50;;;;;;5070806;28;19971;-80
2023/09/23 01:16:06;;;;;;;;;;;9.30;76.50;;;;;;5069628;28;19917;-78
2023/09/23 01:18:32;;;;;;;;;;;9.30;76.40;;;;;;5069338;28;19916;-80
2023/09/23 01:21:00;;;;;;;;;;;9.30;76.40;;;;;;5069359;28;19920;-79
2023/09/23 01:23:26;;;;;;;;;;;9.30;76.40;;;;;;5069261;28;19995;-79
2023/09/23 01:25:51;;;;;;;;;;;9.20;76.40;;;;;;5069274;28;19912;-79
2023/09/23 01:28:18;;;;;;;;;;;9.20;76.40;;;;;;5069214;28;20365;-79
2023/09/23 01:30:44;;;;;;;;;;;9.20;76.40;;;;;;5069784;28;19909;-80
2023/09/23 01:33:10;;;;;;;;;;;9.20;76.30;;;;;;5069082;28;19983;-79
2023/09/23 01:35:36;;;;;;;;;;;9.10;76.20;;;;;;5070522;28;20007;-80
2023/09/23 01:38:03;;;;;;;;;;;9.10;76.30;;;;;;5070475;28;20275;-80
2023/09/23 01:40:32;;;;;;;;;;;9.10;76.30;;;;;;5070267;28;19916;-80
2023/09/23 01:42:58;;;;;;;;;;;9.10;76.30;;;;;;5068668;28;19912;-79
2023/09/23 01:45:25;;;;;;;;;;;9.10;76.20;;;;;;5070109;28;19991;-79
2023/09/23 01:47:51;;;;;;;;;;;9.00;76.20;;;;;;5068851;28;19924;-79
2023/09/23 01:50:17;;;;;;;;;;;9.00;76.30;;;;;;5068794;28;19966;-79
2023/09/23 01:52:43;;;;;;;;;;;9.00;76.30;;;;;;5068869;28;20332;-79
2023/09/23 01:55:12;;;;;;;;;;;9.00;76.30;;;;;;5068746;28;19912;-79
2023/09/23 01:57:37;;;;;;;;;;;8.90;76.30;;;;;;5068761;28;20367;-79
2023/09/23 02:00:04;;;;;;;;;;;9.00;76.40;;;;;;5068719;28;19919;-79
2023/09/23 02:02:30;;;;;;;;;;;9.00;76.30;;;;;;5068404;28;19963;-79
2023/09/23 02:04:56;;;;;;;;;;;9.00;76.30;;;;;;5068587;28;20400;-79
2023/09/23 02:07:22;;;;;;;;;;;9.00;76.30;;;;;;5051910;28;19969;-79
2023/09/23 02:09:47;;;;;;;;;;;9.00;76.30;;;;;;5069770;28;19913;-79
2023/09/23 02:12:14;;;;;;;;;;;9.00;76.30;;;;;;5068367;28;19920;-79
2023/09/23 02:14:40;;;;;;;;;;;9.00;76.40;;;;;;5069802;28;19927;-79
2023/09/23 02:17:06;;;;;;;;;;;9.00;76.40;;;;;;5069748;28;20407;-79
2023/09/23 02:19:31;;;;;;;;;;;9.00;76.30;;;;;;5051459;28;20154;-79
2023/09/23 02:21:57;;;;;;;;;;;9.00;76.30;;;;;;5069509;28;19924;-79
2023/09/23 02:24:23;;;;;;;;;;;9.00;76.30;;;;;;5068002;28;19959;-79
2023/09/23 02:26:49;;;;;;;;;;;9.00;76.40;;;;;;5069460;28;19909;-79
2023/09/23 02:29:15;;;;;;;;;;;8.90;76.30;;;;;;5051663;28;19913;-79
2023/09/23 02:31:48;;;;;;;;;;;8.90;76.30;;;;;;5067962;28;19932;-79
2023/09/23 02:34:17;;;;;;;;;;;8.90;76.40;;;;;;5068052;28;19913;-79
2023/09/23 02:36:45;;;;;;;;;;;8.90;76.80;;;;;;5069296;28;19916;-80
2023/09/23 02:39:15;;;;;;;;;;;8.90;76.40;;;;;;5051435;28;19958;-79
2023/09/23 02:41:45;;;;;;;;;;;8.80;76.30;;;;;;5068124;28;19929;-80
2023/09/23 02:44:24;;;;;;;;;;;8.80;76.30;;;;;;5067848;28;19919;-79
2023/09/23 02:46:53;;;;;;;;;;;8.80;76.40;;;;;;5067873;28;20307;-79
2023/09/23 02:49:19;;;;;;;;;;;8.80;76.40;;;;;;5069085;28;19912;-79
2023/09/23 02:51:44;;;;;;;;;;;8.80;76.40;;;;;;5067610;28;19908;-79
2023/09/23 02:54:11;;;;;;;;;;;8.80;76.50;;;;;;5068917;28;19954;-79
2023/09/23 02:56:37;;;;;;;;;;;8.80;76.40;;;;;;5067655;28;19916;-79
2023/09/23 02:59:11;;;;;;;;;;;8.80;76.50;;;;;;5050756;28;19919;-78
2023/09/23 03:01:45;;;;;;;;;;;8.80;76.60;;;;;;5068580;28;20273;-78
2023/09/23 03:04:23;;;;;;;;;;;8.80;76.60;;;;;;5068548;28;19965;-78
2023/09/23 03:06:50;;;;;;;;;;;8.80;76.60;;;;;;5068609;28;19908;-78
2023/09/23 03:09:24;;;;;;;;;;;8.80;76.70;;;;;;5067290;28;19924;-78
2023/09/23 03:11:56;;;;;;;;;;;8.90;76.70;;;;;;5067285;28;19908;-79
2023/09/23 03:14:51;;;;;;;;;;;8.80;76.60;;;;;;5067176;28;19944;-78
2023/09/23 03:17:21;;;;;;;;;;;8.80;76.60;;;;;;5068341;28;19915;-78
2023/09/23 03:19:50;;;;;;;;;;;8.90;76.60;;;;;;5067353;28;19917;-78
2023/09/23 03:22:18;;;;;;;;;;;8.80;76.50;;;;;;5068365;28;20288;-78
2023/09/23 03:24:48;;;;;;;;;;;8.80;76.50;;;;;;5066992;28;20011;-78
2023/09/23 03:27:14;;;;;;;;;;;8.80;76.50;;;;;;5068406;28;19908;-78
2023/09/23 03:29:40;;;;;;;;;;;8.80;76.50;;;;;;5068332;28;20422;-78
2023/09/23 03:32:06;;;;;;;;;;;8.80;76.40;;;;;;5068307;28;19917;-78
2023/09/23 03:34:32;;;;;;;;;;;8.80;76.40;;;;;;5066751;28;19938;-78
2023/09/23 03:36:58;;;;;;;;;;;8.80;76.40;;;;;;5068181;28;20003;-79
2023/09/23 03:39:24;;;;;;;;;;;8.70;76.40;;;;;;5066771;28;20050;-78
2023/09/23 03:41:50;;;;;;;;;;;8.70;76.40;;;;;;5066705;28;19920;-78
2023/09/23 03:44:16;;;;;;;;;;;8.70;76.40;;;;;;5066592;28;19923;-79
2023/09/23 03:46:50;;;;;;;;;;;8.60;76.40;;;;;;5066790;28;19908;-78
2023/09/23 03:49:15;;;;;;;;;;;8.60;76.40;;;;;;5050205;28;19931;-78
2023/09/23 03:51:41;;;;;;;;;;;8.60;76.40;;;;;;5066831;28;19912;-78
2023/09/23 03:54:07;;;;;;;;;;;8.60;76.40;;;;;;5066303;28;20414;-78
2023/09/23 03:56:34;;;;;;;;;;;8.60;76.40;;;;;;5068055;28;20315;-78
2023/09/23 03:59:06;;;;;;;;;;;8.50;76.40;;;;;;5067956;28;19919;-78
2023/09/23 04:01:36;;;;;;;;;;;8.50;76.40;;;;;;5067677;28;20046;-78
2023/09/23 04:04:06;;;;;;;;;;;8.50;76.40;;;;;;5067163;28;20264;-78
2023/09/23 04:06:33;;;;;;;;;;;8.40;76.40;;;;;;5066856;28;19929;-78
2023/09/23 04:08:59;;;;;;;;;;;8.40;76.50;;;;;;5066773;28;19969;-78
2023/09/23 04:11:25;;;;;;;;;;;8.40;76.50;;;;;;5068016;28;19908;-78
2023/09/23 04:13:52;;;;;;;;;;;8.50;76.60;;;;;;5066496;28;19923;-78
2023/09/23 04:16:19;;;;;;;;;;;8.40;76.60;;;;;;5067836;28;19913;-78
2023/09/23 04:18:46;;;;;;;;;;;8.50;76.70;;;;;;5067883;28;19959;-78
2023/09/23 04:21:12;;;;;;;;;;;8.60;76.80;;;;;;5067658;28;19920;-79
2023/09/23 04:23:39;;;;;;;;;;;8.60;76.70;;;;;;5067580;28;19912;-78
2023/09/23 04:26:05;;;;;;;;;;;8.70;76.70;;;;;;5049851;28;19912;-78
2023/09/23 04:28:31;;;;;;;;;;;8.70;76.70;;;;;;5066400;28;19913;-78
2023/09/23 04:31:00;;;;;;;;;;;8.70;76.70;;;;;;5066327;28;19924;-79
2023/09/23 04:33:27;;;;;;;;;;;8.80;76.70;;;;;;5067524;28;19954;-79
2023/09/23 04:35:56;;;;;;;;;;;8.90;76.70;;;;;;5067549;28;19909;-78
2023/09/23 04:38:22;;;;;;;;;;;8.90;76.70;;;;;;5049936;28;19913;-78
2023/09/23 04:40:48;;;;;;;;;;;8.90;76.70;;;;;;5066123;28;20300;-78
2023/09/23 04:43:13;;;;;;;;;;;9.00;76.60;;;;;;5066087;28;19916;-78
2023/09/23 04:45:39;;;;;;;;;;;9.00;76.60;;;;;;5049401;28;20030;-78
2023/09/23 04:48:06;;;;;;;;;;;9.00;76.50;;;;;;5049301;28;19912;-78
2023/09/23 04:50:31;;;;;;;;;;;9.00;76.50;;;;;;5067485;28;20419;-78
2023/09/23 04:52:57;;;;;;;;;;;9.00;76.50;;;;;;5067387;28;19912;-78
2023/09/23 04:55:23;;;;;;;;;;;9.00;76.50;;;;;;5066187;28;19916;-78
2023/09/23 04:57:49;;;;;;;;;;;9.00;76.50;;;;;;5066001;28;19919;-78
2023/09/23 05:00:18;;;;;;;;;;;8.90;76.40;;;;;;5049516;28;19940;-78
2023/09/23 05:02:46;;;;;;;;;;;8.90;76.50;;;;;;5049488;28;19937;-78
2023/09/23 05:05:11;;;;;;;;;;;8.90;76.60;;;;;;5067590;28;20023;-78
2023/09/23 05:07:37;;;;;;;;;;;8.90;76.70;;;;;;5069689;28;20000;-78
2023/09/23 05:10:06;;;;;;;;;;;8.90;76.60;;;;;;5069866;28;19909;-78
2023/09/23 05:12:32;;;;;;;;;;;8.90;76.60;;;;;;5069562;28;19966;-79
2023/09/23 05:14:58;;;;;;;;;;;8.80;76.60;;;;;;5070809;28;19944;-79
2023/09/23 05:17:26;;;;;;;;;;;8.80;76.60;;;;;;5069478;28;19924;-78
2023/09/23 05:19:52;;;;;;;;;;;8.80;76.70;;;;;;5069331;28;19932;-78
2023/09/23 05:22:18;;;;;;;;;;;8.90;76.80;;;;;;5069370;28;19923;-78
2023/09/23 05:24:50;;;;;;;;;;;8.90;76.80;;;;;;5070500;28;20007;-78
2023/09/23 05:27:16;;;;;;;;;;;8.90;76.90;;;;;;5069042;28;19919;-79
2023/09/23 05:29:43;;;;;;;;;;;9.00;76.90;;;;;;5069251;28;19991;-78
2023/09/23 05:32:12;;;;;;;;;;;9.10;76.90;;;;;;5070789;28;19954;-69
2023/09/23 05:34:41;;;;;;;;;;;9.10;76.80;;;;;;5069058;28;19982;-78
2023/09/23 05:37:11;;;;;;;;;;;9.20;76.80;;;;;;5070322;28;20368;-78
2023/09/23 05:39:37;;;;;;;;;;;9.20;76.80;;;;;;5070797;28;20104;-78
2023/09/23 05:42:03;;;;;;;;;;;9.20;76.80;;;;;;5068885;28;19969;-79
2023/09/23 05:44:28;;;;;;;;;;;9.20;76.90;;;;;;5068795;28;20326;-78
2023/09/23 05:46:54;;;;;;;;;;;9.20;77.30;;;;;;5069030;28;19913;-79
2023/09/23 05:49:19;;;;;;;;;;;9.20;76.80;;;;;;5052054;28;19917;-78
2023/09/23 05:51:45;;;;;;;;;;;9.30;76.90;;;;;;5068879;28;19943;-79
2023/09/23 05:54:11;;;;;;;;;;;9.30;76.90;;;;;;5069374;28;19923;-79
2023/09/23 05:56:36;;;;;;;;;;;9.40;76.90;;;;;;5070526;28;19908;-78
2023/09/23 05:59:02;;;;;;;;;;;9.40;76.90;;;;;;5069998;28;19924;-78
2023/09/23 06:01:28;;;;;;;;;;;9.40;76.90;;;;;;5069658;28;20288;-78
2023/09/23 06:03:53;;;;;;;;;;;9.40;76.90;;;;;;5051764;28;19923;-78
2023/09/23 06:06:19;;;;;;;;;;;9.50;77.00;;;;;;5068477;28;19920;-79
2023/09/23 06:08:48;;;;;;;;;;;9.50;77.00;;;;;;5069806;28;19913;-79
2023/09/23 06:11:14;;;;;;;;;;;9.50;76.90;;;;;;5068583;28;19917;-79
2023/09/23 06:13:40;;;;;;;;;;;9.50;76.90;;;;;;5068386;28;20415;-79
2023/09/23 06:16:05;;;;;;;;;;;9.60;77.00;;;;;;5068185;28;19971;-78
2023/09/23 06:18:31;;;;;;;;;;;9.70;77.10;;;;;;5069870;28;19912;-79
2023/09/23 06:21:00;;;;;;;;;;;9.70;77.00;;;;;;5068373;28;19916;-78
2023/09/23 06:23:26;;;;;;;;;;;9.70;76.90;;;;;;5067987;28;19966;-79
2023/09/23 06:25:55;;;;;;;;;;;9.80;76.90;;;;;;5068415;28;19955;-78
2023/09/23 06:28:21;;;;;;;;;;;9.80;76.90;;;;;;5069309;28;19912;-78
2023/09/23 06:30:47;;;;;;;;;;;9.90;77.00;;;;;;5068395;28;20427;-78
2023/09/23 06:33:13;;;;;;;;;;;9.90;76.90;;;;;;5068085;28;20024;-79
2023/09/23 06:35:38;;;;;;;;;;;9.90;77.00;;;;;;5069427;28;19916;-78
2023/09/23 06:38:04;;;;;;;;;;;10.00;77.00;;;;;;5067997;28;19913;-78
2023/09/23 06:40:29;;;;;;;;;;;10.10;77.00;;;;;;5067612;28;19920;-78
2023/09/23 06:42:55;;;;;;;;;;;10.10;76.90;;;;;;5068800;28;19916;-78
2023/09/23 06:45:21;;;;;;;;;;;10.20;77.00;;;;;;5067532;28;19909;-78
2023/09/23 06:47:47;;;;;;;;;;;10.30;77.00;;;;;;5067796;28;20309;-78
2023/09/23 06:50:12;;;;;;;;;;;10.40;77.10;;;;;;5068583;28;20252;-78
2023/09/23 06:52:38;;;;;;;;;;;10.50;77.50;;;;;;5068529;28;20447;-78
2023/09/23 06:55:04;;;;;;;;;;;10.50;77.00;;;;;;5050753;28;19916;-78
2023/09/23 06:57:29;;;;;;;;;;;10.60;77.10;;;;;;5050779;28;19912;-78
2023/09/23 06:59:55;;;;;;;;;;;10.80;77.20;;;;;;5050837;28;20384;-78
2023/09/23 07:02:21;;;;;;;;;;;10.90;77.10;;;;;;5067201;28;19959;-78
2023/09/23 07:04:47;;;;;;;;;;;11.00;77.10;;;;;;5050930;28;19923;-78
2023/09/23 07:07:12;;;;;;;;;;;11.20;77.10;;;;;;5067336;28;20332;-78
2023/09/23 07:09:38;;;;;;;;;;;11.30;77.00;;;;;;5068334;28;19927;-79
2023/09/23 07:12:04;;;;;;;;;;;11.40;77.00;;;;;;5067263;28;19968;-77
2023/09/23 07:14:30;;;;;;;;;;;11.50;76.90;;;;;;5067032;28;19908;-78
2023/09/23 07:16:56;;;;;;;;;;;11.70;76.90;;;;;;5068350;28;19991;-78
2023/09/23 07:19:21;;;;;;;;;;;11.80;76.80;;;;;;5067410;28;20007;-78
2023/09/23 07:21:47;;;;;;;;;;;11.80;77.30;;;;;;5050194;28;19920;-78
2023/09/23 07:24:13;;;;;;;;;;;11.90;76.90;;;;;;5068193;28;19978;-78
2023/09/23 07:26:38;;;;;;;;;;;12.00;77.00;;;;;;5068164;28;19920;-78
2023/09/23 07:29:04;;;;;;;;;;;12.00;77.00;;;;;;5065910;28;20272;-78
2023/09/23 07:31:29;;;;;;;;;;;12.20;77.20;;;;;;5067762;28;19912;-78
2023/09/23 07:33:55;;;;;;;;;;;12.30;77.40;;;;;;5066728;28;20431;-79
2023/09/23 07:36:21;;;;;;;;;;;12.60;77.60;;;;;;5066613;28;19931;-79
2023/09/23 07:38:46;;;;;;;;;;;12.90;77.60;;;;;;5066894;28;19913;-79
2023/09/23 07:41:12;;;;;;;;;;;13.00;77.40;;;;;;5066463;28;19908;-80
2023/09/23 07:43:39;;;;;;;;;;;13.20;77.40;;;;;;5049213;28;20315;-80
2023/09/23 07:46:05;;;;;;;;;;;13.30;77.30;;;;;;5067316;28;19913;-79
2023/09/23 07:48:30;;;;;;;;;;;13.50;77.30;;;;;;5066325;28;19981;-81
2023/09/23 07:50:56;;;;;;;;;;;13.70;77.30;;;;;;5066428;28;19994;-78
2023/09/23 07:53:22;;;;;;;;;;;13.90;77.40;;;;;;5067430;28;19914;-79
2023/09/23 07:55:47;;;;;;;;;;;14.10;77.70;;;;;;5065623;28;20399;-79
2023/09/23 07:58:13;;;;;;;;;;;14.40;78.20;;;;;;5065472;28;19962;-79
2023/09/23 08:00:39;;;;;;;;;;;14.70;77.80;;;;;;5065139;28;19923;-78
2023/09/23 08:03:04;;;;;;;;;;;14.90;77.70;;;;;;5067167;28;19916;-81
2023/09/23 08:05:31;;;;;;;;;;;15.20;77.70;;;;;;5049350;28;19967;-80
2023/09/23 08:07:57;;;;;;;;;;;15.30;77.60;;;;;;5065952;28;20004;-80
2023/09/23 08:10:23;;;;;;;;;;;15.50;77.80;;;;;;5067406;28;20339;-80
2023/09/23 08:12:48;;;;;;;;;;;15.70;77.60;;;;;;5066941;28;19913;-79
2023/09/23 08:15:14;;;;;;;;;;;15.90;78.10;;;;;;5049037;28;19913;-79
2023/09/23 08:17:40;;;;;;;;;;;16.40;78.70;;;;;;5065661;28;19917;-79
2023/09/23 08:20:17;;;;;;;;;;;17.20;79.30;;;;;;5065534;28;19913;-80
2023/09/23 08:22:43;;;;;;;;;;;18.00;79.00;;;;;;5067078;28;19966;-80
2023/09/23 08:25:08;;;;;;;;;;;18.90;79.00;;;;;;5067088;28;19917;-80
2023/09/23 08:27:34;;;;;;;;;;;19.70;78.90;;;;;;5049327;28;20353;-78
2023/09/23 08:29:59;;;;;;;;;;;20.40;78.80;;;;;;5065783;28;19931;-78
2023/09/23 08:32:25;;;;;;;;;;;21.10;78.60;;;;;;5067877;28;19920;-75
2023/09/23 08:34:51;;;;;;;;;;;21.60;78.40;;;;;;5066090;28;19917;-77
2023/09/23 08:37:16;;;;;;;;;;;22.10;78.90;;;;;;5066516;28;19920;-78
2023/09/23 08:39:42;;;;;;;;;;;22.60;78.80;;;;;;5104184;28;19919;-79
2023/09/23 08:42:07;;;;;;;;;;;23.00;78.30;;;;;;5071398;28;19974;-77
2023/09/23 08:44:36;;;;;;;;;;;23.20;78.20;;;;;;5088346;28;20358;-78
2023/09/23 08:47:01;;;;;;;;;;;23.30;78.00;;;;;;5073380;28;19916;-78
2023/09/23 08:49:28;;;;;;;;;;;23.50;78.10;;;;;;5074375;28;19920;-81
2023/09/23 08:51:57;;;;;;;;;;;23.60;78.10;;;;;;5058991;28;19912;-80
2023/09/23 08:54:23;;;;;;;;;;;23.80;78.10;;;;;;5054093;28;20246;-80
2023/09/23 08:56:50;;;;;;;;;;;24.20;78.30;;;;;;5069482;28;19959;-81
2023/09/23 08:59:15;;;;;;;;;;;24.70;78.50;;;;;;5052152;28;20006;-80
2023/09/23 09:01:41;;;;;;;;;;;25.30;78.60;;;;;;5052330;28;20384;-81
2023/09/23 09:04:07;;;;;;;;;;;25.80;78.50;;;;;;5053401;28;20317;-81
2023/09/23 09:06:32;;;;;;;;;;;26.00;78.90;;;;;;5063138;28;19958;-82
2023/09/23 09:08:59;;;;;;;;;;;26.30;78.90;;;;;;5073451;28;19951;-70
2023/09/23 09:11:25;;;;;;;;;;;26.60;78.80;;;;;;5071361;28;19920;-86
2023/09/23 09:13:51;;;;;;;;;;;27.00;78.70;;;;;;5072251;28;19912;-85
2023/09/23 09:16:18;;;;;;;;;;;27.10;78.20;;;;;;5071027;28;19920;-86
2023/09/23 09:18:44;;;;;;;;;;;27.00;78.70;;;;;;5072802;28;19923;-85
2023/09/23 09:21:09;;;;;;;;;;;27.00;79.50;;;;;;5072241;28;19912;-88
2023/09/23 09:23:38;;;;;;;;;;;27.10;79.20;;;;;;5072207;28;20003;-80
2023/09/23 09:26:04;;;;;;;;;;;27.10;79.80;;;;;;5070436;28;20347;-80
2023/09/23 09:28:36;;;;;;;;;;;27.10;80.10;;;;;;5069536;28;19908;-80
2023/09/23 09:31:04;;;;;;;;;;;27.40;80.40;;;;;;5069621;28;19979;-82
2023/09/23 09:33:31;;;;;;;;;;;27.70;80.00;;;;;;5069256;28;20007;-81
2023/09/23 09:35:56;;;;;;;;;;;27.70;79.20;;;;;;5070316;28;19934;-80
2023/09/23 09:38:25;;;;;;;;;;;27.40;78.60;;;;;;5069088;28;19996;-80
2023/09/23 09:40:58;;;;;;;;;;;27.00;78.60;;;;;;5068651;28;19951;-82
2023/09/23 09:43:24;;;;;;;;;;;26.60;78.60;;;;;;5067221;28;19920;-80
2023/09/23 09:45:50;;;;;;;;;;;26.20;79.20;;;;;;5068335;28;19918;-81
2023/09/23 09:48:18;;;;;;;;;;;25.90;78.90;;;;;;5070059;28;19983;-80
2023/09/23 09:50:56;;;;;;;;;;;25.50;79.50;;;;;;5069744;28;19908;-83
2023/09/23 09:53:25;;;;;;;;;;;25.20;79.10;;;;;;5068905;28;19909;-83
2023/09/23 09:55:51;;;;;;;;;;;24.90;79.50;;;;;;5070313;28;19919;-83
2023/09/23 09:58:16;;;;;;;;;;;24.90;80.30;;;;;;5069256;28;20410;-82
2023/09/23 10:00:43;;;;;;;;;;;25.10;80.80;;;;;;5070106;28;19912;-82
2023/09/23 10:03:11;;;;;;;;;;;25.40;81.10;;;;;;5070197;28;19913;-82
2023/09/23 10:05:47;;;;;;;;;;;26.00;81.40;;;;;;5070352;28;19982;-82
2023/09/23 10:08:15;;;;;;;;;;;26.40;81.20;;;;;;5070432;28;19916;-82
2023/09/23 10:10:50;;;;;;;;;;;26.40;81.40;;;;;;5069847;28;19912;-84
2023/09/23 10:13:22;;;;;;;;;;;26.70;81.40;;;;;;5066771;28;19974;-82
2023/09/23 10:15:48;;;;;;;;;;;27.00;81.10;;;;;;5069053;28;20287;-77
2023/09/23 10:18:17;;;;;;;;;;;27.30;81.00;;;;;;5068957;28;19949;-77
2023/09/23 10:20:42;;;;;;;;;;;27.40;80.80;;;;;;5069045;28;19924;-78
2023/09/23 10:23:08;;;;;;;;;;;27.50;80.90;;;;;;5068927;28;19923;-77
2023/09/23 10:25:43;;;;;;;;;;;27.70;80.50;;;;;;5067636;28;20023;-77
2023/09/23 10:28:20;;;;;;;;;;;27.80;81.00;;;;;;5066436;28;20307;-77
2023/09/23 10:30:55;;;;;;;;;;;28.10;80.90;;;;;;5068772;28;20264;-77
2023/09/23 10:33:20;;;;;;;;;;;28.30;80.50;;;;;;5068096;28;19917;-77
2023/09/23 10:35:46;;;;;;;;;;;28.40;80.30;;;;;;5068638;28;19954;-77
2023/09/23 10:38:19;;;;;;;;;;;28.50;80.00;;;;;;5068734;28;20407;-78
2023/09/23 10:40:48;;;;;;;;;;;28.40;79.70;;;;;;5067898;28;20388;-78
2023/09/23 10:43:14;;;;;;;;;;;28.40;79.80;;;;;;5067671;28;19995;-78
2023/09/23 10:45:40;;;;;;;;;;;28.00;78.60;;;;;;5066266;28;20491;-78
2023/09/23 10:48:08;;;;;;;;;;;26.90;78.20;;;;;;5067280;28;19913;-77
2023/09/23 10:50:33;;;;;;;;;;;25.70;78.40;;;;;;5066959;28;20057;-72
2023/09/23 10:52:59;;;;;;;;;;;24.80;78.90;;;;;;5068352;28;19951;-77
2023/09/23 10:55:24;;;;;;;;;;;24.20;80.20;;;;;;5066430;28;20001;-77
2023/09/23 10:57:50;;;;;;;;;;;23.90;80.60;;;;;;5067630;28;19916;-77
2023/09/23 11:00:20;;;;;;;;;;;23.50;81.10;;;;;;5067219;28;20086;-77
2023/09/23 11:02:52;;;;;;;;;;;23.60;82.00;;;;;;5064694;28;19973;-77
2023/09/23 11:05:20;;;;;;;;;;;24.00;82.30;;;;;;5068205;28;19919;-77
2023/09/23 11:07:45;;;;;;;;;;;24.40;81.70;;;;;;5066016;28;19908;-77
2023/09/23 11:10:12;;;;;;;;;;;25.00;81.20;;;;;;5068083;28;19924;-77
2023/09/23 11:12:41;;;;;;;;;;;25.50;81.50;;;;;;5068316;28;20260;-77
2023/09/23 11:15:07;;;;;;;;;;;25.90;82.10;;;;;;5067928;28;19908;-76
2023/09/23 11:17:34;;;;;;;;;;;26.50;81.30;;;;;;5068160;28;19944;-79
2023/09/23 11:20:01;;;;;;;;;;;26.70;81.20;;;;;;5067717;28;20034;-78
2023/09/23 11:22:28;;;;;;;;;;;26.70;80.30;;;;;;5067888;28;19974;-78
2023/09/23 11:24:54;;;;;;;;;;;26.10;78.80;;;;;;5066731;28;20276;-78
2023/09/23 11:27:21;;;;;;;;;;;25.00;78.90;;;;;;5068327;28;20364;-78
2023/09/23 11:29:48;;;;;;;;;;;24.40;80.20;;;;;;5068533;28;19912;-78
2023/09/23 11:32:13;;;;;;;;;;;24.50;81.90;;;;;;5068943;28;19909;-79
2023/09/23 11:34:39;;;;;;;;;;;25.20;82.30;;;;;;5069062;28;19908;-79
2023/09/23 11:37:04;;;;;;;;;;;25.80;82.00;;;;;;5068417;28;19916;-75
2023/09/23 11:39:35;;;;;;;;;;;25.80;81.40;;;;;;5067038;28;20057;-76
2023/09/23 11:42:04;;;;;;;;;;;25.90;80.90;;;;;;5066458;28;19920;-75
2023/09/23 11:44:29;;;;;;;;;;;25.70;80.70;;;;;;5049705;28;19952;-76
2023/09/23 11:46:55;;;;;;;;;;;25.70;80.70;;;;;;5066562;28;19944;-75
2023/09/23 11:49:21;;;;;;;;;;;25.80;80.80;;;;;;5066193;28;19952;-75
2023/09/23 11:51:46;;;;;;;;;;;26.00;80.40;;;;;;5066139;28;20531;-74
2023/09/23 11:54:12;;;;;;;;;;;26.00;79.30;;;;;;5067381;28;19916;-73
2023/09/23 11:56:38;;;;;;;;;;;25.40;78.60;;;;;;5067637;28;19908;-73
2023/09/23 11:59:03;;;;;;;;;;;24.60;78.20;;;;;;5049346;28;19997;-73
2023/09/23 12:01:29;;;;;;;;;;;23.90;78.70;;;;;;5066984;28;19933;-74
2023/09/23 12:03:58;;;;;;;;;;;23.40;79.40;;;;;;5068090;28;19913;-73
2023/09/23 12:06:34;;;;;;;;;;;23.10;79.20;;;;;;5068741;28;19923;-76
2023/09/23 12:09:03;;;;;;;;;;;22.80;78.90;;;;;;5066725;28;19917;-73
2023/09/23 12:11:30;;;;;;;;;;;22.30;79.00;;;;;;5067165;28;19909;-74
2023/09/23 12:13:55;;;;;;;;;;;22.00;79.30;;;;;;5066388;28;20258;-72
2023/09/23 12:16:21;;;;;;;;;;;21.80;79.50;;;;;;5065379;28;19962;-73
2023/09/23 12:18:48;;;;;;;;;;;21.60;79.30;;;;;;5067587;28;20371;-73
2023/09/23 12:21:14;;;;;;;;;;;21.40;78.90;;;;;;5067486;28;19912;-73
2023/09/23 12:23:40;;;;;;;;;;;21.10;78.60;;;;;;5066387;28;19940;-74
2023/09/23 12:26:06;;;;;;;;;;;20.90;78.60;;;;;;5066471;28;20833;-73
2023/09/23 12:28:32;;;;;;;;;;;20.60;78.70;;;;;;5066257;28;19909;-72
2023/09/23 12:30:57;;;;;;;;;;;20.60;79.40;;;;;;5066484;28;19952;-72
2023/09/23 12:33:23;;;;;;;;;;;20.80;80.10;;;;;;5068341;28;19916;-71
2023/09/23 12:35:48;;;;;;;;;;;21.30;80.50;;;;;;5068342;28;19956;-73
2023/09/23 12:38:14;;;;;;;;;;;21.90;79.80;;;;;;5067020;28;19912;-71
2023/09/23 12:40:39;;;;;;;;;;;22.00;79.20;;;;;;5066490;28;19924;-72
2023/09/23 12:43:05;;;;;;;;;;;21.90;78.80;;;;;;5066421;28;19956;-74
2023/09/23 12:45:31;;;;;;;;;;;21.70;78.60;;;;;;5067949;28;20323;-74
2023/09/23 12:47:56;;;;;;;;;;;21.50;78.20;;;;;;5068541;28;19912;-75
2023/09/23 12:50:22;;;;;;;;;;;21.20;78.50;;;;;;5068053;28;19931;-70
2023/09/23 12:52:48;;;;;;;;;;;21.10;78.60;;;;;;5066527;28;19942;-72
2023/09/23 12:55:13;;;;;;;;;;;21.00;78.70;;;;;;5066704;28;20225;-73
2023/09/23 12:57:39;;;;;;;;;;;20.80;78.70;;;;;;5068143;28;19912;-73
2023/09/23 13:00:05;;;;;;;;;;;20.70;78.70;;;;;;5067966;28;19912;-73
2023/09/23 13:02:30;;;;;;;;;;;20.60;78.90;;;;;;5067586;28;19932;-75
2023/09/23 13:04:56;;;;;;;;;;;20.50;78.80;;;;;;5049788;28;20257;-75
2023/09/23 13:07:22;;;;;;;;;;;20.40;78.80;;;;;;5050728;28;20252;-73
2023/09/23 13:09:48;;;;;;;;;;;20.30;79.00;;;;;;5066397;28;19913;-74
2023/09/23 13:12:15;;;;;;;;;;;20.40;79.10;;;;;;5067737;28;20007;-74
2023/09/23 13:14:41;;;;;;;;;;;20.50;79.10;;;;;;5066147;28;20367;-82
2023/09/23 13:17:06;;;;;;;;;;;20.60;78.80;;;;;;5068459;28;19913;-80
2023/09/23 13:19:33;;;;;;;;;;;20.60;78.60;;;;;;5067544;28;19959;-77
2023/09/23 13:21:58;;;;;;;;;;;20.60;78.10;;;;;;5067565;28;19961;-80
2023/09/23 13:24:24;;;;;;;;;;;20.40;78.00;;;;;;5066839;28;19919;-75
2023/09/23 13:26:49;;;;;;;;;;;20.30;78.30;;;;;;5070461;28;19966;-77
2023/09/23 13:29:16;;;;;;;;;;;20.20;78.20;;;;;;5071555;28;19962;-77
2023/09/23 13:31:42;;;;;;;;;;;20.00;78.00;;;;;;5088984;28;20014;-77
2023/09/23 13:34:09;;;;;;;;;;;19.90;78.30;;;;;;5072366;28;20360;-77
2023/09/23 13:36:35;;;;;;;;;;;19.90;78.10;;;;;;5073308;28;20283;-81
2023/09/23 13:39:01;;;;;;;;;;;19.80;77.90;;;;;;5070905;28;19924;-82
2023/09/23 13:41:27;;;;;;;;;;;19.70;78.20;;;;;;5070476;28;19916;-79
2023/09/23 13:43:53;;;;;;;;;;;19.60;77.90;;;;;;5069821;28;19931;-80
2023/09/23 13:46:18;;;;;;;;;;;19.50;77.60;;;;;;5070621;28;19909;-81
2023/09/23 13:48:44;;;;;;;;;;;19.30;77.50;;;;;;5071163;28;19930;-80
2023/09/23 13:51:10;;;;;;;;;;;19.10;77.50;;;;;;5062984;28;20072;-78
2023/09/23 13:53:35;;;;;;;;;;;18.90;77.60;;;;;;5066913;28;19917;-83
2023/09/23 13:56:01;;;;;;;;;;;18.80;77.80;;;;;;5058579;28;19913;-79
2023/09/23 13:58:26;;;;;;;;;;;18.80;78.00;;;;;;5069938;28;20439;-79
2023/09/23 14:00:52;;;;;;;;;;;18.80;78.20;;;;;;5069835;28;19981;-82
2023/09/23 14:03:19;;;;;;;;;;;18.90;78.40;;;;;;5049844;28;19917;-76
2023/09/23 14:05:45;;;;;;;;;;;19.10;78.50;;;;;;5070324;28;19912;-78
2023/09/23 14:08:10;;;;;;;;;;;19.30;78.30;;;;;;5071119;28;19986;-77
2023/09/23 14:10:36;;;;;;;;;;;19.40;78.00;;;;;;5052826;28;19939;-76
2023/09/23 14:13:03;;;;;;;;;;;19.40;77.70;;;;;;5069368;28;19920;-71
2023/09/23 14:15:30;;;;;;;;;;;19.40;77.70;;;;;;5070467;28;19936;-80
2023/09/23 14:17:56;;;;;;;;;;;19.40;77.90;;;;;;5068854;28;19987;-75
2023/09/23 14:20:22;;;;;;;;;;;19.50;77.90;;;;;;5069372;28;19915;-73